createdAt,value
2023-03-26T00:09:56.358Z,97385.75
2023-03-26T00:19:59.912Z,97380.13
2023-03-26T00:30:04.500Z,97375.00
2023-03-26T00:40:08.747Z,97357.53
2023-03-26T00:50:15.807Z,97339.47
2023-03-26T01:00:19.366Z,97329.72
2023-03-26T01:10:22.974Z,97306.00
2023-03-26T01:20:30.717Z,97294.94
2023-03-26T01:31:25.529Z,97277.94
2023-03-26T01:41:47.738Z,97237.31
2023-03-26T01:51:51.573Z,97189.41
2023-03-26T02:02:01.608Z,97168.13
2023-03-26T02:12:05.800Z,97141.19
2023-03-26T02:22:11.518Z,97121.84
2023-03-26T02:32:14.298Z,97123.47
2023-03-26T02:42:16.789Z,97107.31
2023-03-26T02:52:19.180Z,97082.31
2023-03-26T03:02:24.751Z,97079.06
2023-03-26T03:12:27.216Z,97064.03
2023-03-26T03:22:29.499Z,97040.09
2023-03-26T03:32:32.014Z,97014.78
2023-03-26T03:42:34.510Z,96983.84
2023-03-26T03:52:36.726Z,96965.84
2023-03-26T04:02:39.409Z,96934.12
2023-03-26T04:12:41.700Z,96916.94
2023-03-26T04:22:44.297Z,96908.31
2023-03-26T04:32:58.262Z,96905.91
2023-03-26T04:43:17.975Z,96885.72
2023-03-26T04:53:24.533Z,96884.09
2023-03-26T05:03:33.173Z,96874.41
2023-03-26T05:13:35.521Z,96827.88
2023-03-26T05:23:37.950Z,96812.81
2023-03-26T05:33:40.350Z,96785.66
2023-03-26T05:43:45.252Z,96767.34
2023-03-26T05:53:47.550Z,96729.69
2023-03-26T06:03:50.983Z,96715.72
2023-03-26T06:13:53.582Z,96711.41
2023-03-26T06:23:56.719Z,96705.44
2023-03-26T06:33:59.141Z,96708.94
2023-03-26T06:44:01.928Z,96716.72
2023-03-26T06:54:04.383Z,96693.53
2023-03-26T07:04:06.802Z,96677.00
2023-03-26T07:14:09.283Z,96669.56
2023-03-26T07:24:12.346Z,96669.81
2023-03-26T07:34:41.406Z,96687.34
2023-03-26T07:45:05.648Z,96662.75
2023-03-26T07:55:09.334Z,96661.56
2023-03-26T08:05:26.512Z,96649.16
2023-03-26T08:15:50.351Z,96668.81
2023-03-26T08:26:04.656Z,96730.63
2023-03-26T08:36:09.937Z,96727.22
2023-03-26T08:46:33.098Z,96725.09
2023-03-26T08:57:02.370Z,96721.31
2023-03-26T09:07:49.711Z,96725.84
2023-03-26T09:18:32.501Z,96725.41
2023-03-26T09:28:59.590Z,96739.53
2023-03-26T09:39:24.131Z,96761.09
2023-03-26T09:49:44.981Z,96744.56
2023-03-26T10:00:16.260Z,96731.44
2023-03-26T10:10:22.603Z,96732.69
2023-03-26T10:20:59.310Z,96721.56
2023-03-26T10:31:30.741Z,96732.41
2023-03-26T10:42:03.228Z,96733.91
2023-03-26T10:52:16.577Z,96717.38
2023-03-26T11:02:52.906Z,96723.03
2023-03-26T11:13:09.790Z,96721.50
2023-03-26T11:23:25.415Z,96699.25
2023-03-26T11:33:45.618Z,96715.13
2023-03-26T11:44:01.039Z,96707.34
2023-03-26T11:54:05.854Z,96704.19
2023-03-26T12:04:14.380Z,96675.97
2023-03-26T12:14:21.378Z,96664.47
2023-03-26T12:24:30.189Z,96673.66
2023-03-26T12:34:35.862Z,96685.13
2023-03-26T12:44:58.919Z,96659.41
2023-03-26T12:55:35.880Z,96644.16
2023-03-26T13:06:01.547Z,96651.78
2023-03-26T13:16:25.495Z,96599.84
2023-03-26T13:26:47.194Z,96578.66
2023-03-26T13:37:00.966Z,96561.88
2023-03-26T13:47:11.585Z,96642.56
2023-03-26T13:57:35.753Z,96729.75
2023-03-26T14:07:52.922Z,96710.81
2023-03-26T14:18:02.407Z,96697.19
2023-03-26T14:29:11.192Z,96712.56
2023-03-26T14:39:40.904Z,96719.56
2023-03-26T14:50:12.511Z,96743.38
2023-03-26T15:00:52.331Z,96764.03
2023-03-26T15:11:21.516Z,96804.78
2023-03-26T15:22:01.641Z,96798.47
2023-03-26T15:32:18.122Z,96843.19
2023-03-26T15:43:07.295Z,96737.84
2023-03-26T15:53:48.559Z,96738.37
2023-03-26T16:04:27.173Z,96751.12
2023-03-26T16:14:35.471Z,96735.41
2023-03-26T16:24:47.426Z,96736.06
2023-03-26T16:34:59.963Z,96740.34
2023-03-26T16:45:23.638Z,96765.00
2023-03-26T16:55:39.260Z,96798.97
2023-03-26T17:05:51.617Z,96796.53
2023-03-26T17:16:12.269Z,96797.91
2023-03-26T17:26:22.369Z,96785.03
2023-03-26T17:36:42.301Z,96768.91
2023-03-26T17:46:48.427Z,96755.56
2023-03-26T17:56:53.913Z,96744.03
2023-03-26T18:07:15.853Z,96734.09
2023-03-26T18:17:18.647Z,96719.03
2023-03-26T18:27:23.498Z,96712.31
2023-03-26T18:37:34.721Z,96716.87
2023-03-26T18:47:39.009Z,96734.09
2023-03-26T18:57:44.132Z,96721.19
2023-03-26T19:07:48.054Z,96738.37
2023-03-26T19:18:00.234Z,96792.13
2023-03-26T19:28:03.536Z,96790.47
2023-03-26T19:38:27.702Z,96763.81
2023-03-26T19:48:46.093Z,96755.38
2023-03-26T19:58:52.998Z,96728.47
2023-03-26T20:08:56.692Z,96735.91
2023-03-26T20:19:02.724Z,96735.88
2023-03-26T20:29:05.993Z,96736.91
2023-03-26T20:39:10.030Z,96740.34
2023-03-26T20:49:12.870Z,96780.53
2023-03-26T20:59:22.673Z,96784.63
2023-03-26T21:09:25.992Z,96790.03
2023-03-26T21:19:29.461Z,96784.66
2023-03-26T21:29:32.465Z,96787.22
2023-03-26T21:39:35.294Z,96794.06
2023-03-26T21:49:38.897Z,96794.53
2023-03-26T21:59:47.095Z,96797.44
2023-03-26T22:09:49.770Z,96790.91
2023-03-26T22:19:52.081Z,96796.41
2023-03-26T22:29:54.630Z,96805.81
2023-03-26T22:39:57.745Z,96815.00
2023-03-26T22:50:00.888Z,96831.41
2023-03-26T23:00:16.555Z,96858.03
2023-03-26T23:10:18.983Z,96872.88
2023-03-26T23:20:21.810Z,96874.03
2023-03-26T23:30:24.718Z,96883.81
2023-03-26T23:40:27.859Z,96906.84
2023-03-26T23:50:30.375Z,96911.41
